sensor_id;sensor_type;location;lat;lon;timestamp;pressure;altitude;pressure_sealevel;temperature;humidity
48874;BME280;66155;46.204;5.220;2023-09-19T00:04:20;98711.66;;;20.19;61.25
48874;BME280;66155;46.204;5.220;2023-09-19T00:09:29;98708.25;;;20.18;60.61
48874;BME280;66155;46.204;5.220;2023-09-19T00:14:30;98723.63;;;20.16;61.46
48874;BME280;66155;46.204;5.220;2023-09-19T00:19:30;98717.41;;;20.12;61.29
48874;BME280;66155;46.204;5.220;2023-09-19T00:24:31;98711.19;;;20.17;63.39
48874;BME280;66155;46.204;5.220;2023-09-19T00:29:31;98712.25;;;20.07;65.50
48874;BME280;66155;46.204;5.220;2023-09-19T00:34:33;98721.28;;;20.06;63.52
48874;BME280;66155;46.204;5.220;2023-09-19T00:39:38;98723.78;;;20.20;60.79
48874;BME280;66155;46.204;5.220;2023-09-19T00:44:41;98717.13;;;20.31;64.22
48874;BME280;66155;46.204;5.220;2023-09-19T00:49:41;98709.19;;;20.31;62.83
48874;BME280;66155;46.204;5.220;2023-09-19T00:54:42;98716.97;;;20.27;65.30
48874;BME280;66155;46.204;5.220;2023-09-19T00:59:42;98709.66;;;20.24;64.95
48874;BME280;66155;46.204;5.220;2023-09-19T01:04:44;98718.19;;;20.21;63.91
48874;BME280;66155;46.204;5.220;2023-09-19T01:09:45;98726.44;;;20.20;63.57
48874;BME280;66155;46.204;5.220;2023-09-19T01:14:59;98728.75;;;20.12;63.67
48874;BME280;66155;46.204;5.220;2023-09-19T01:20:17;98727.34;;;20.06;62.52
48874;BME280;66155;46.204;5.220;2023-09-19T01:30:44;98746.88;;;19.79;63.62
48874;BME280;66155;46.204;5.220;2023-09-19T01:35:46;98737.00;;;19.71;66.44
48874;BME280;66155;46.204;5.220;2023-09-19T01:41:04;98754.94;;;19.74;68.04
48874;BME280;66155;46.204;5.220;2023-09-19T01:46:13;98771.63;;;19.61;68.02
48874;BME280;66155;46.204;5.220;2023-09-19T01:51:37;98789.44;;;19.24;69.30
48874;BME280;66155;46.204;5.220;2023-09-19T01:56:45;98807.09;;;18.92;70.20
48874;BME280;66155;46.204;5.220;2023-09-19T02:01:49;98812.34;;;18.41;75.22
48874;BME280;66155;46.204;5.220;2023-09-19T02:06:51;98805.91;;;18.06;74.19
48874;BME280;66155;46.204;5.220;2023-09-19T02:11:52;98799.66;;;17.88;72.81
48874;BME280;66155;46.204;5.220;2023-09-19T02:16:52;98799.03;;;17.77;73.87
48874;BME280;66155;46.204;5.220;2023-09-19T02:21:54;98791.97;;;17.73;73.63
48874;BME280;66155;46.204;5.220;2023-09-19T02:26:54;98783.59;;;17.71;76.30
48874;BME280;66155;46.204;5.220;2023-09-19T02:31:58;98774.13;;;17.70;76.66
48874;BME280;66155;46.204;5.220;2023-09-19T02:36:59;98777.25;;;17.72;76.57
48874;BME280;66155;46.204;5.220;2023-09-19T02:42:00;98778.81;;;17.73;80.38
48874;BME280;66155;46.204;5.220;2023-09-19T02:47:01;98787.72;;;17.77;75.54
48874;BME280;66155;46.204;5.220;2023-09-19T02:52:02;98785.69;;;17.88;77.88
48874;BME280;66155;46.204;5.220;2023-09-19T02:57:04;98787.06;;;17.99;77.34
48874;BME280;66155;46.204;5.220;2023-09-19T03:02:06;98787.94;;;18.08;73.13
48874;BME280;66155;46.204;5.220;2023-09-19T03:07:07;98792.25;;;18.18;71.97
48874;BME280;66155;46.204;5.220;2023-09-19T03:12:07;98790.75;;;18.26;70.62
48874;BME280;66155;46.204;5.220;2023-09-19T03:17:08;98798.00;;;18.20;72.38
48874;BME280;66155;46.204;5.220;2023-09-19T03:22:09;98801.91;;;18.22;71.74
48874;BME280;66155;46.204;5.220;2023-09-19T03:27:10;98803.09;;;18.30;70.22
48874;BME280;66155;46.204;5.220;2023-09-19T03:32:10;98793.97;;;18.36;69.78
48874;BME280;66155;46.204;5.220;2023-09-19T03:37:11;98796.63;;;18.36;69.08
48874;BME280;66155;46.204;5.220;2023-09-19T03:42:11;98794.97;;;18.40;68.92
48874;BME280;66155;46.204;5.220;2023-09-19T03:47:12;98788.69;;;18.50;69.02
48874;BME280;66155;46.204;5.220;2023-09-19T03:52:12;98789.34;;;18.56;68.50
48874;BME280;66155;46.204;5.220;2023-09-19T03:57:13;98785.72;;;18.66;68.30
48874;BME280;66155;46.204;5.220;2023-09-19T04:02:16;98779.25;;;18.72;67.67
48874;BME280;66155;46.204;5.220;2023-09-19T04:07:22;98789.22;;;18.75;67.43
48874;BME280;66155;46.204;5.220;2023-09-19T04:12:23;98794.41;;;18.80;67.69
48874;BME280;66155;46.204;5.220;2023-09-19T04:17:23;98795.94;;;18.81;70.55
48874;BME280;66155;46.204;5.220;2023-09-19T04:22:23;98787.25;;;18.80;69.24
48874;BME280;66155;46.204;5.220;2023-09-19T04:27:24;98784.72;;;18.75;70.28
48874;BME280;66155;46.204;5.220;2023-09-19T04:32:28;98795.28;;;18.75;67.95
48874;BME280;66155;46.204;5.220;2023-09-19T04:37:28;98790.78;;;18.76;68.02
48874;BME280;66155;46.204;5.220;2023-09-19T04:42:29;98799.41;;;18.82;68.01
48874;BME280;66155;46.204;5.220;2023-09-19T04:47:30;98810.34;;;18.89;68.70
48874;BME280;66155;46.204;5.220;2023-09-19T04:52:30;98811.59;;;18.91;67.65
48874;BME280;66155;46.204;5.220;2023-09-19T04:57:31;98816.88;;;18.91;68.75
48874;BME280;66155;46.204;5.220;2023-09-19T05:02:32;98813.94;;;18.93;67.81
48874;BME280;66155;46.204;5.220;2023-09-19T05:07:32;98826.25;;;18.97;67.98
48874;BME280;66155;46.204;5.220;2023-09-19T05:12:34;98822.03;;;18.96;67.50
48874;BME280;66155;46.204;5.220;2023-09-19T05:17:36;98826.53;;;18.96;67.14
48874;BME280;66155;46.204;5.220;2023-09-19T05:22:36;98830.84;;;18.92;67.70
48874;BME280;66155;46.204;5.220;2023-09-19T05:27:39;98850.59;;;18.80;69.85
48874;BME280;66155;46.204;5.220;2023-09-19T05:32:40;98855.31;;;18.70;68.59
48874;BME280;66155;46.204;5.220;2023-09-19T05:37:41;98850.81;;;18.70;67.96
48874;BME280;66155;46.204;5.220;2023-09-19T05:42:41;98855.31;;;18.70;68.38
48874;BME280;66155;46.204;5.220;2023-09-19T05:47:43;98868.41;;;18.75;68.19
48874;BME280;66155;46.204;5.220;2023-09-19T05:52:52;98868.59;;;18.78;67.60
48874;BME280;66155;46.204;5.220;2023-09-19T05:57:53;98863.72;;;18.86;67.88
48874;BME280;66155;46.204;5.220;2023-09-19T06:02:55;98872.91;;;18.88;67.48
48874;BME280;66155;46.204;5.220;2023-09-19T06:07:57;98877.00;;;18.94;69.54
48874;BME280;66155;46.204;5.220;2023-09-19T06:13:02;98870.22;;;19.02;68.57
48874;BME280;66155;46.204;5.220;2023-09-19T06:18:11;98887.25;;;19.10;67.73
48874;BME280;66155;46.204;5.220;2023-09-19T06:23:15;98890.25;;;19.17;67.60
48874;BME280;66155;46.204;5.220;2023-09-19T06:28:15;98883.47;;;19.25;67.67
48874;BME280;66155;46.204;5.220;2023-09-19T06:33:18;98885.72;;;19.31;67.28
48874;BME280;66155;46.204;5.220;2023-09-19T06:38:21;98886.25;;;19.42;67.43
48874;BME280;66155;46.204;5.220;2023-09-19T06:43:22;98875.81;;;19.60;66.97
48874;BME280;66155;46.204;5.220;2023-09-19T06:48:23;98871.44;;;19.78;66.60
48874;BME280;66155;46.204;5.220;2023-09-19T06:53:25;98868.84;;;19.86;66.78
48874;BME280;66155;46.204;5.220;2023-09-19T06:58:25;98871.34;;;19.91;66.70
48874;BME280;66155;46.204;5.220;2023-09-19T07:03:26;98885.22;;;19.97;66.84
48874;BME280;66155;46.204;5.220;2023-09-19T07:08:28;98884.94;;;19.99;66.74
48874;BME280;66155;46.204;5.220;2023-09-19T07:13:29;98888.88;;;20.10;67.41
48874;BME280;66155;46.204;5.220;2023-09-19T07:18:29;98897.47;;;20.24;66.78
48874;BME280;66155;46.204;5.220;2023-09-19T07:23:30;98898.97;;;20.48;66.44
48874;BME280;66155;46.204;5.220;2023-09-19T07:28:35;98899.97;;;20.69;66.21
48874;BME280;66155;46.204;5.220;2023-09-19T07:33:36;98895.34;;;20.75;66.16
48874;BME280;66155;46.204;5.220;2023-09-19T07:38:37;98894.84;;;20.73;66.13
48874;BME280;66155;46.204;5.220;2023-09-19T07:43:38;98903.91;;;20.72;66.40
48874;BME280;66155;46.204;5.220;2023-09-19T07:48:42;98909.50;;;20.70;66.84
48874;BME280;66155;46.204;5.220;2023-09-19T07:53:47;98903.47;;;20.79;66.52
48874;BME280;66155;46.204;5.220;2023-09-19T07:58:48;98905.97;;;20.84;66.21
48874;BME280;66155;46.204;5.220;2023-09-19T08:03:48;98905.47;;;20.82;66.07
48874;BME280;66155;46.204;5.220;2023-09-19T08:08:52;98912.47;;;20.78;66.17
48874;BME280;66155;46.204;5.220;2023-09-19T08:13:54;98915.25;;;20.73;65.85
48874;BME280;66155;46.204;5.220;2023-09-19T08:18:54;98916.91;;;20.60;65.25
48874;BME280;66155;46.204;5.220;2023-09-19T08:23:55;98926.06;;;20.45;65.51
48874;BME280;66155;46.204;5.220;2023-09-19T08:28:55;98922.88;;;20.34;66.23
48874;BME280;66155;46.204;5.220;2023-09-19T08:33:56;98926.19;;;20.40;65.64
48874;BME280;66155;46.204;5.220;2023-09-19T08:38:57;98920.41;;;20.29;65.58
48874;BME280;66155;46.204;5.220;2023-09-19T08:44:00;98928.75;;;20.22;65.37
48874;BME280;66155;46.204;5.220;2023-09-19T08:49:04;98923.00;;;20.20;65.13
48874;BME280;66155;46.204;5.220;2023-09-19T08:54:14;98931.28;;;20.27;65.16
48874;BME280;66155;46.204;5.220;2023-09-19T08:59:21;98930.25;;;20.46;64.12
48874;BME280;66155;46.204;5.220;2023-09-19T09:04:24;98926.16;;;20.71;64.68
48874;BME280;66155;46.204;5.220;2023-09-19T09:09:28;98927.47;;;21.08;64.39
48874;BME280;66155;46.204;5.220;2023-09-19T09:14:29;98923.13;;;21.39;63.66
48874;BME280;66155;46.204;5.220;2023-09-19T09:19:30;98924.09;;;21.69;60.50
48874;BME280;66155;46.204;5.220;2023-09-19T09:24:31;98923.31;;;21.69;61.20
48874;BME280;66155;46.204;5.220;2023-09-19T09:29:47;98923.91;;;21.65;63.32
48874;BME280;66155;46.204;5.220;2023-09-19T09:34:50;98914.84;;;21.84;63.40
48874;BME280;66155;46.204;5.220;2023-09-19T09:39:58;98915.13;;;22.00;62.04
48874;BME280;66155;46.204;5.220;2023-09-19T09:45:21;98919.63;;;22.08;60.04
48874;BME280;66155;46.204;5.220;2023-09-19T09:50:48;98918.06;;;22.07;63.17
48874;BME280;66155;46.204;5.220;2023-09-19T09:56:08;98915.25;;;22.12;60.46
48874;BME280;66155;46.204;5.220;2023-09-19T10:01:09;98906.19;;;22.13;61.71
48874;BME280;66155;46.204;5.220;2023-09-19T10:06:12;98899.63;;;22.28;62.33
48874;BME280;66155;46.204;5.220;2023-09-19T10:11:28;98890.38;;;22.26;61.05
48874;BME280;66155;46.204;5.220;2023-09-19T10:16:31;98896.16;;;22.28;62.30
48874;BME280;66155;46.204;5.220;2023-09-19T10:21:33;98897.72;;;22.20;58.91
48874;BME280;66155;46.204;5.220;2023-09-19T10:26:37;98889.50;;;22.13;59.65
48874;BME280;66155;46.204;5.220;2023-09-19T10:31:39;98891.81;;;22.14;60.53
48874;BME280;66155;46.204;5.220;2023-09-19T10:36:45;98895.13;;;22.02;60.56
48874;BME280;66155;46.204;5.220;2023-09-19T10:41:50;98899.56;;;21.90;58.57
48874;BME280;66155;46.204;5.220;2023-09-19T10:46:54;98892.38;;;21.81;59.63
48874;BME280;66155;46.204;5.220;2023-09-19T10:51:57;98891.13;;;21.88;58.54
48874;BME280;66155;46.204;5.220;2023-09-19T10:57:00;98889.94;;;22.15;60.20
48874;BME280;66155;46.204;5.220;2023-09-19T11:02:17;98884.75;;;22.36;59.31
48874;BME280;66155;46.204;5.220;2023-09-19T11:07:18;98892.34;;;22.46;57.98
48874;BME280;66155;46.204;5.220;2023-09-19T11:17:46;98873.16;;;22.91;53.23
48874;BME280;66155;46.204;5.220;2023-09-19T11:33:23;98868.38;;;23.27;58.41
48874;BME280;66155;46.204;5.220;2023-09-19T11:49:10;98864.56;;;23.15;57.67
48874;BME280;66155;46.204;5.220;2023-09-19T11:54:15;98855.25;;;23.43;58.52
48874;BME280;66155;46.204;5.220;2023-09-19T11:59:26;98843.25;;;23.58;58.55
48874;BME280;66155;46.204;5.220;2023-09-19T12:04:40;98843.34;;;23.61;55.46
48874;BME280;66155;46.204;5.220;2023-09-19T12:09:45;98835.28;;;23.70;56.44
48874;BME280;66155;46.204;5.220;2023-09-19T12:14:51;98826.09;;;23.80;56.50
48874;BME280;66155;46.204;5.220;2023-09-19T12:19:55;98827.44;;;23.86;54.04
48874;BME280;66155;46.204;5.220;2023-09-19T12:25:05;98821.63;;;23.71;56.03
48874;BME280;66155;46.204;5.220;2023-09-19T12:30:07;98819.97;;;23.67;57.61
48874;BME280;66155;46.204;5.220;2023-09-19T12:35:08;98802.56;;;23.69;56.64
48874;BME280;66155;46.204;5.220;2023-09-19T12:40:11;98805.47;;;23.77;57.00
48874;BME280;66155;46.204;5.220;2023-09-19T12:45:18;98797.31;;;23.94;54.36
48874;BME280;66155;46.204;5.220;2023-09-19T12:50:19;98794.63;;;24.31;58.33
48874;BME280;66155;46.204;5.220;2023-09-19T12:55:27;98780.97;;;24.85;60.13
48874;BME280;66155;46.204;5.220;2023-09-19T13:00:36;98781.81;;;25.78;61.70
48874;BME280;66155;46.204;5.220;2023-09-19T13:05:50;98771.59;;;26.67;60.46
48874;BME280;66155;46.204;5.220;2023-09-19T13:16:10;98769.44;;;28.11;59.17
48874;BME280;66155;46.204;5.220;2023-09-19T13:21:14;98752.84;;;28.93;56.82
48874;BME280;66155;46.204;5.220;2023-09-19T13:26:25;98750.38;;;28.77;56.22
48874;BME280;66155;46.204;5.220;2023-09-19T13:31:26;98744.91;;;28.36;56.20
48874;BME280;66155;46.204;5.220;2023-09-19T13:36:27;98729.56;;;28.67;48.32
48874;BME280;66155;46.204;5.220;2023-09-19T13:41:29;98732.84;;;29.24;55.19
48874;BME280;66155;46.204;5.220;2023-09-19T13:46:34;98733.78;;;29.98;51.71
48874;BME280;66155;46.204;5.220;2023-09-19T13:51:35;98727.09;;;30.40;52.13
48874;BME280;66155;46.204;5.220;2023-09-19T13:56:36;98710.69;;;30.81;53.31
48874;BME280;66155;46.204;5.220;2023-09-19T14:01:37;98714.97;;;31.00;49.64
48874;BME280;66155;46.204;5.220;2023-09-19T14:06:41;98701.91;;;31.02;51.63
48874;BME280;66155;46.204;5.220;2023-09-19T14:11:42;98700.31;;;30.87;47.41
48874;BME280;66155;46.204;5.220;2023-09-19T14:16:42;98698.03;;;30.93;42.63
48874;BME280;66155;46.204;5.220;2023-09-19T14:21:42;98696.13;;;31.18;49.61
48874;BME280;66155;46.204;5.220;2023-09-19T14:26:45;98695.75;;;31.52;46.70
48874;BME280;66155;46.204;5.220;2023-09-19T14:31:45;98701.13;;;31.31;41.13
48874;BME280;66155;46.204;5.220;2023-09-19T14:36:46;98702.66;;;31.28;47.76
48874;BME280;66155;46.204;5.220;2023-09-19T14:41:46;98695.97;;;30.39;36.33
48874;BME280;66155;46.204;5.220;2023-09-19T14:46:47;98701.19;;;30.07;43.35
48874;BME280;66155;46.204;5.220;2023-09-19T14:51:47;98702.72;;;29.45;38.10
48874;BME280;66155;46.204;5.220;2023-09-19T14:56:48;98702.50;;;28.79;40.85
48874;BME280;66155;46.204;5.220;2023-09-19T15:01:54;98684.03;;;28.36;41.00
48874;BME280;66155;46.204;5.220;2023-09-19T15:06:54;98685.44;;;27.69;40.99
48874;BME280;66155;46.204;5.220;2023-09-19T15:11:55;98682.41;;;27.44;41.34
48874;BME280;66155;46.204;5.220;2023-09-19T15:16:56;98688.38;;;26.91;41.17
48874;BME280;66155;46.204;5.220;2023-09-19T15:21:56;98691.88;;;26.53;41.06
48874;BME280;66155;46.204;5.220;2023-09-19T15:26:58;98676.75;;;26.61;41.38
48874;BME280;66155;46.204;5.220;2023-09-19T15:31:58;98683.88;;;26.53;40.95
48874;BME280;66155;46.204;5.220;2023-09-19T15:37:02;98684.09;;;26.64;40.81
48874;BME280;66155;46.204;5.220;2023-09-19T15:42:03;98675.22;;;27.02;40.72
48874;BME280;66155;46.204;5.220;2023-09-19T15:47:04;98682.81;;;27.46;40.32
48874;BME280;66155;46.204;5.220;2023-09-19T15:52:04;98675.16;;;27.72;39.99
48874;BME280;66155;46.204;5.220;2023-09-19T15:57:05;98669.16;;;27.82;38.83
48874;BME280;66155;46.204;5.220;2023-09-19T16:02:05;98668.13;;;27.90;40.20
48874;BME280;66155;46.204;5.220;2023-09-19T16:07:06;98662.63;;;28.06;40.12
48874;BME280;66155;46.204;5.220;2023-09-19T16:12:07;98659.88;;;28.33;39.35
48874;BME280;66155;46.204;5.220;2023-09-19T16:17:10;98661.16;;;28.46;40.05
48874;BME280;66155;46.204;5.220;2023-09-19T16:22:11;98656.81;;;28.68;39.58
48874;BME280;66155;46.204;5.220;2023-09-19T16:27:12;98653.22;;;28.53;39.47
48874;BME280;66155;46.204;5.220;2023-09-19T16:32:12;98659.16;;;28.70;38.84
48874;BME280;66155;46.204;5.220;2023-09-19T16:37:12;98659.72;;;28.93;39.36
48874;BME280;66155;46.204;5.220;2023-09-19T16:42:14;98655.88;;;29.35;41.22
48874;BME280;66155;46.204;5.220;2023-09-19T16:47:16;98654.50;;;29.63;37.61
48874;BME280;66155;46.204;5.220;2023-09-19T16:52:17;98654.81;;;29.51;40.90
48874;BME280;66155;46.204;5.220;2023-09-19T16:57:17;98655.22;;;29.49;40.40
48874;BME280;66155;46.204;5.220;2023-09-19T17:02:17;98656.22;;;29.30;40.60
48874;BME280;66155;46.204;5.220;2023-09-19T17:07:18;98651.00;;;29.04;38.12
48874;BME280;66155;46.204;5.220;2023-09-19T17:12:20;98649.22;;;28.74;38.71
48874;BME280;66155;46.204;5.220;2023-09-19T17:17:20;98654.16;;;28.34;38.88
48874;BME280;66155;46.204;5.220;2023-09-19T17:22:20;98643.06;;;28.02;39.87
48874;BME280;66155;46.204;5.220;2023-09-19T17:27:21;98642.28;;;27.75;38.87
48874;BME280;66155;46.204;5.220;2023-09-19T17:32:22;98647.97;;;27.43;39.63
48874;BME280;66155;46.204;5.220;2023-09-19T17:37:22;98634.69;;;27.00;40.13
48874;BME280;66155;46.204;5.220;2023-09-19T17:42:23;98637.28;;;26.54;40.26
48874;BME280;66155;46.204;5.220;2023-09-19T17:47:23;98645.25;;;26.11;40.73
48874;BME280;66155;46.204;5.220;2023-09-19T17:52:25;98651.59;;;25.68;40.89
48874;BME280;66155;46.204;5.220;2023-09-19T17:57:27;98650.06;;;25.03;41.78
48874;BME280;66155;46.204;5.220;2023-09-19T18:02:27;98654.19;;;24.56;41.69
48874;BME280;66155;46.204;5.220;2023-09-19T18:07:28;98654.84;;;24.25;41.93
48874;BME280;66155;46.204;5.220;2023-09-19T18:12:30;98658.91;;;24.06;41.97
48874;BME280;66155;46.204;5.220;2023-09-19T18:17:32;98657.94;;;23.86;42.23
48874;BME280;66155;46.204;5.220;2023-09-19T18:22:32;98662.28;;;23.66;41.96
48874;BME280;66155;46.204;5.220;2023-09-19T18:27:33;98660.28;;;23.51;41.97
48874;BME280;66155;46.204;5.220;2023-09-19T18:32:35;98664.81;;;23.38;42.37
48874;BME280;66155;46.204;5.220;2023-09-19T18:37:39;98659.94;;;23.28;42.77
48874;BME280;66155;46.204;5.220;2023-09-19T18:42:39;98671.66;;;23.14;42.31
48874;BME280;66155;46.204;5.220;2023-09-19T18:47:42;98680.50;;;23.06;42.36
48874;BME280;66155;46.204;5.220;2023-09-19T18:52:43;98680.78;;;22.92;42.30
48874;BME280;66155;46.204;5.220;2023-09-19T18:57:43;98688.28;;;22.78;42.57
48874;BME280;66155;46.204;5.220;2023-09-19T19:02:44;98685.00;;;22.60;43.72
48874;BME280;66155;46.204;5.220;2023-09-19T19:07:45;98688.25;;;22.45;44.17
48874;BME280;66155;46.204;5.220;2023-09-19T19:12:45;98682.75;;;22.29;44.47
48874;BME280;66155;46.204;5.220;2023-09-19T19:17:46;98681.31;;;22.31;43.06
48874;BME280;66155;46.204;5.220;2023-09-19T19:22:46;98688.50;;;22.31;43.72
48874;BME280;66155;46.204;5.220;2023-09-19T19:27:47;98684.16;;;22.26;43.66
48874;BME280;66155;46.204;5.220;2023-09-19T19:32:47;98689.34;;;22.23;43.52
48874;BME280;66155;46.204;5.220;2023-09-19T19:37:48;98693.38;;;22.20;43.88
48874;BME280;66155;46.204;5.220;2023-09-19T19:42:49;98692.81;;;22.14;43.93
48874;BME280;66155;46.204;5.220;2023-09-19T19:47:50;98699.75;;;22.07;43.84
48874;BME280;66155;46.204;5.220;2023-09-19T19:52:52;98688.50;;;22.01;44.06
48874;BME280;66155;46.204;5.220;2023-09-19T19:57:58;98690.59;;;21.95;44.51
48874;BME280;66155;46.204;5.220;2023-09-19T20:02:59;98688.78;;;21.87;44.20
48874;BME280;66155;46.204;5.220;2023-09-19T20:08:00;98689.09;;;21.86;44.25
48874;BME280;66155;46.204;5.220;2023-09-19T20:13:00;98688.63;;;21.83;44.25
48874;BME280;66155;46.204;5.220;2023-09-19T20:18:06;98686.31;;;21.82;44.31
48874;BME280;66155;46.204;5.220;2023-09-19T20:23:11;98680.88;;;21.78;44.41
48874;BME280;66155;46.204;5.220;2023-09-19T20:28:11;98685.59;;;21.73;44.72
48874;BME280;66155;46.204;5.220;2023-09-19T20:33:12;98687.31;;;21.69;44.69
48874;BME280;66155;46.204;5.220;2023-09-19T20:38:12;98671.88;;;21.62;45.19
48874;BME280;66155;46.204;5.220;2023-09-19T20:43:13;98663.34;;;21.56;47.47
48874;BME280;66155;46.204;5.220;2023-09-19T20:48:14;98663.38;;;21.48;45.58
48874;BME280;66155;46.204;5.220;2023-09-19T20:53:16;98660.09;;;21.42;45.71
48874;BME280;66155;46.204;5.220;2023-09-19T20:58:17;98653.31;;;21.32;45.90
48874;BME280;66155;46.204;5.220;2023-09-19T21:03:18;98655.84;;;21.20;46.13
48874;BME280;66155;46.204;5.220;2023-09-19T21:08:18;98653.97;;;21.12;46.21
48874;BME280;66155;46.204;5.220;2023-09-19T21:13:18;98654.94;;;21.07;46.12
48874;BME280;66155;46.204;5.220;2023-09-19T21:18:19;98652.31;;;20.98;46.17
48874;BME280;66155;46.204;5.220;2023-09-19T21:23:20;98664.63;;;20.85;47.86
48874;BME280;66155;46.204;5.220;2023-09-19T21:28:20;98665.31;;;20.74;49.20
48874;BME280;66155;46.204;5.220;2023-09-19T21:33:21;98656.13;;;20.62;47.32
48874;BME280;66155;46.204;5.220;2023-09-19T21:38:22;98653.94;;;20.56;48.39
48874;BME280;66155;46.204;5.220;2023-09-19T21:43:23;98638.97;;;20.51;48.01
48874;BME280;66155;46.204;5.220;2023-09-19T21:48:23;98626.81;;;20.50;47.07
48874;BME280;66155;46.204;5.220;2023-09-19T21:53:24;98623.72;;;20.48;49.72
48874;BME280;66155;46.204;5.220;2023-09-19T21:58:24;98633.06;;;20.45;47.19
48874;BME280;66155;46.204;5.220;2023-09-19T22:03:25;98631.03;;;20.42;49.26
48874;BME280;66155;46.204;5.220;2023-09-19T22:08:25;98627.16;;;20.31;47.80
48874;BME280;66155;46.204;5.220;2023-09-19T22:13:27;98629.50;;;20.24;48.49
48874;BME280;66155;46.204;5.220;2023-09-19T22:18:29;98626.72;;;20.20;48.09
48874;BME280;66155;46.204;5.220;2023-09-19T22:23:30;98623.59;;;20.18;48.70
48874;BME280;66155;46.204;5.220;2023-09-19T22:28:36;98619.38;;;20.08;48.23
48874;BME280;66155;46.204;5.220;2023-09-19T22:33:40;98633.22;;;20.05;48.59
48874;BME280;66155;46.204;5.220;2023-09-19T22:38:41;98629.94;;;20.00;48.54
48874;BME280;66155;46.204;5.220;2023-09-19T22:43:41;98623.13;;;19.99;49.32
48874;BME280;66155;46.204;5.220;2023-09-19T22:48:50;98623.72;;;19.96;53.94
48874;BME280;66155;46.204;5.220;2023-09-19T22:53:51;98623.88;;;19.82;50.70
48874;BME280;66155;46.204;5.220;2023-09-19T22:58:57;98626.47;;;19.73;50.19
48874;BME280;66155;46.204;5.220;2023-09-19T23:03:58;98624.91;;;19.63;49.15
48874;BME280;66155;46.204;5.220;2023-09-19T23:09:15;98626.56;;;19.59;52.69
48874;BME280;66155;46.204;5.220;2023-09-19T23:14:22;98631.84;;;19.50;49.86
48874;BME280;66155;46.204;5.220;2023-09-19T23:19:28;98620.34;;;19.46;50.48
48874;BME280;66155;46.204;5.220;2023-09-19T23:24:30;98618.75;;;19.36;49.87
48874;BME280;66155;46.204;5.220;2023-09-19T23:29:34;98617.31;;;19.30;53.41
48874;BME280;66155;46.204;5.220;2023-09-19T23:34:38;98625.38;;;19.25;50.45
48874;BME280;66155;46.204;5.220;2023-09-19T23:39:39;98623.22;;;19.27;50.18
48874;BME280;66155;46.204;5.220;2023-09-19T23:44:41;98625.09;;;19.27;50.74
48874;BME280;66155;46.204;5.220;2023-09-19T23:49:45;98618.06;;;19.22;50.42
48874;BME280;66155;46.204;5.220;2023-09-19T23:54:49;98627.22;;;19.16;57.01
48874;BME280;66155;46.204;5.220;2023-09-19T23:59:50;98616.44;;;19.04;54.35
